Time;durP1;ratioP1;P1;durP2;ratioP2;P2;SDS_P1;SDS_P2;PMS_P1;PMS_P2;Temp;Humidity;BMP_temperature;BMP_pressure;BME280_temperature;BME280_humidity;BME280_pressure;Samples;Min_cycle;Max_cycle;Signal;HPM_P1;HPM_P2
2021/07/04 00:00:44;;;;;;;13.85;11.18;;;;;;;18.91;81.10;98591.05;129645;1093;114153;-62
2021/07/04 00:03:14;;;;;;;15.13;13.65;;;;;;;18.92;81.29;98589.09;129836;1093;22620;-62
2021/07/04 00:05:44;;;;;;;18.78;16.98;;;;;;;18.92;81.41;98587.14;129671;1092;114506;-62
2021/07/04 00:08:16;;;;;;;24.20;21.70;;;;;;;18.92;81.14;98584.39;129834;1093;22554;-61
2021/07/04 00:10:47;;;;;;;24.70;22.10;;;;;;;18.92;81.35;98580.81;129648;1093;114491;-62
2021/07/04 00:13:16;;;;;;;24.20;21.83;;;;;;;18.90;81.25;98578.39;129819;1093;22608;-61
2021/07/04 00:15:45;;;;;;;22.75;20.58;;;;;;;18.89;81.45;98584.27;129761;1092;22594;-62
2021/07/04 00:18:20;;;;;;;22.58;20.18;;;;;;;18.83;81.25;98591.93;129714;1093;113844;-62
2021/07/04 00:20:49;;;;;;;20.90;18.78;;;;;;;18.81;81.19;98587.88;129786;1093;23547;-62
2021/07/04 00:23:18;;;;;;;18.60;16.68;;;;;;;18.77;81.04;98584.98;129737;1093;114442;-61
2021/07/04 00:25:47;;;;;;;17.78;14.55;;;;;;;18.72;81.43;98585.19;129693;1093;22617;-62
2021/07/04 00:28:16;;;;;;;17.58;15.00;;;;;;;18.68;81.43;98589.75;129805;1093;23089;-62
2021/07/04 00:30:45;;;;;;;17.00;15.38;;;;;;;18.62;81.63;98591.08;129707;1092;114191;-61
2021/07/04 00:33:14;;;;;;;17.17;15.50;;;;;;;18.57;81.72;98583.79;129792;1092;24861;-62
2021/07/04 00:35:43;;;;;;;18.05;16.20;;;;;;;18.53;81.83;98593.05;129718;1092;114495;-62
2021/07/04 00:38:12;;;;;;;21.20;18.23;;;;;;;18.50;82.20;98593.72;129792;1092;22534;-62
2021/07/04 00:40:43;;;;;;;18.20;16.30;;;;;;;18.48;82.40;98596.80;129692;1093;114539;-61
2021/07/04 00:43:12;;;;;;;16.08;11.13;;;;;;;18.49;82.62;98598.42;129781;1092;22595;-61
2021/07/04 00:45:41;;;;;;;13.25;9.90;;;;;;;18.50;82.81;98594.52;129823;1093;23140;-62
2021/07/04 00:48:12;;;;;;;8.80;7.93;;;;;;;18.54;83.00;98594.67;129627;1093;114189;-62
2021/07/04 00:50:58;;;;;;;7.93;7.23;;;;;;;18.56;83.12;98598.72;129800;1093;22599;-62
2021/07/04 00:53:28;;;;;;;13.03;8.65;;;;;;;18.57;82.97;98603.09;129681;1093;114192;-61
2021/07/04 00:55:58;;;;;;;9.28;8.33;;;;;;;18.60;82.96;98598.91;129766;1093;22596;-62
2021/07/04 00:58:28;;;;;;;11.38;7.85;;;;;;;18.61;83.07;98595.78;129598;1093;114154;-63
2021/07/04 01:01:00;;;;;;;11.98;8.35;;;;;;;18.62;83.01;98589.13;129809;1093;22645;-62
2021/07/04 01:03:30;;;;;;;10.18;7.83;;;;;;;18.64;83.04;98600.64;129761;1092;22559;-62
2021/07/04 01:05:59;;;;;;;7.88;7.13;;;;;;;18.65;82.95;98599.50;129701;1092;114224;-61
2021/07/04 01:08:29;;;;;;;8.23;6.68;;;;;;;18.66;82.70;98590.09;129757;1093;22585;-62
2021/07/04 01:10:58;;;;;;;9.20;7.95;;;;;;;18.68;82.91;98584.23;129695;1093;113632;-62
2021/07/04 01:13:31;;;;;;;8.45;7.63;;;;;;;18.67;82.85;98583.42;129738;1093;22551;-62
2021/07/04 01:16:21;;;;;;;8.68;7.75;;;;;;;18.68;82.71;98579.53;129803;1093;22626;-61
2021/07/04 01:19:13;;;;;;;10.53;7.98;;;;;;;18.68;82.70;98574.01;129633;1093;113830;-61
2021/07/04 01:21:45;;;;;;;9.13;7.55;;;;;;;18.68;82.65;98585.05;129753;1092;22556;-61
2021/07/04 01:24:14;;;;;;;8.58;7.55;;;;;;;18.67;82.53;98577.09;129654;1093;114131;-62
2021/07/04 01:26:43;;;;;;;8.45;7.70;;;;;;;18.66;82.73;98581.80;129789;1093;22536;-61
2021/07/04 01:29:13;;;;;;;12.48;8.13;;;;;;;18.66;82.51;98584.56;129615;1093;114284;-61
2021/07/04 01:31:43;;;;;;;11.20;8.53;;;;;;;18.67;82.75;98580.66;129780;1093;22652;-62
2021/07/04 01:34:15;;;;;;;11.15;7.70;;;;;;;18.68;82.98;98576.77;129752;1093;22564;-62
2021/07/04 01:36:44;;;;;;;11.93;9.58;;;;;;;18.68;82.79;98568.48;129673;1093;114188;-62
2021/07/04 01:39:15;;;;;;;10.70;9.40;;;;;;;18.68;82.67;98570.44;129725;1093;22558;-62
2021/07/04 01:41:46;;;;;;;12.88;9.43;;;;;;;18.63;82.35;98568.67;129718;1091;114207;-62
2021/07/04 01:44:21;;;;;;;12.25;11.05;;;;;;;18.58;82.45;98571.64;129768;1093;22564;-61
2021/07/04 01:46:50;;;;;;;11.43;10.23;;;;;;;18.55;82.34;98569.52;129684;1093;114528;-61
2021/07/04 01:49:20;;;;;;;9.35;8.45;;;;;;;18.53;82.55;98569.03;129747;1093;22531;-61
2021/07/04 01:51:52;;;;;;;8.63;7.80;;;;;;;18.49;82.72;98570.83;129778;1093;22582;-61
2021/07/04 01:54:27;;;;;;;9.55;8.55;;;;;;;18.43;83.03;98572.19;129633;1093;114251;-62
2021/07/04 01:56:56;;;;;;;10.40;9.40;;;;;;;18.42;83.23;98573.32;129761;1093;22552;-62
2021/07/04 01:59:26;;;;;;;11.20;10.10;;;;;;;18.41;83.10;98574.46;129654;1093;114413;-61
2021/07/04 02:02:15;;;;;;;10.20;9.20;;;;;;;18.42;83.55;98576.08;129783;1093;22545;-61
2021/07/04 02:04:46;;;;;;;13.43;9.35;;;;;;;18.43;83.32;98577.70;129660;1093;114326;-61
2021/07/04 02:07:24;;;;;;;12.75;9.60;;;;;;;18.44;83.34;98573.00;125598;1093;23228;-64
2021/07/04 02:09:58;;;;;;;10.05;9.05;;;;;;;18.43;83.25;98577.70;125158;1093;26288;-65
2021/07/04 02:12:36;;;;;;;12.60;8.70;;;;;;;18.44;83.18;98587.59;129718;1093;115095;-65
2021/07/04 02:15:11;;;;;;;10.75;8.23;;;;;;;18.43;83.53;98585.16;129787;1093;23099;-65
2021/07/04 02:17:50;;;;;;;9.45;8.48;;;;;;;18.43;83.36;98588.73;129688;1093;114289;-65
2021/07/04 02:20:43;;;;;;;12.05;8.55;;;;;;;18.45;83.23;98589.22;129613;1093;23381;-65
2021/07/04 02:23:23;;;;;;;10.78;9.58;;;;;;;18.46;83.54;98601.86;129726;1093;114540;-65
2021/07/04 02:26:25;;;;;;;11.93;9.88;;;;;;;18.48;83.27;98604.27;129554;1092;22590;-65
2021/07/04 02:28:58;;;;;;;10.60;9.50;;;;;;;18.49;83.50;98603.13;129651;1092;114355;-65
2021/07/04 02:31:36;;;;;;;10.08;8.85;;;;;;;18.51;83.44;98606.36;129789;1092;23161;-65
2021/07/04 02:34:09;;;;;;;11.55;10.30;;;;;;;18.50;83.32;98607.50;129818;1092;22609;-65
2021/07/04 02:36:58;;;;;;;10.95;9.63;;;;;;;18.51;83.10;98615.45;129686;1093;114995;-65
2021/07/04 02:39:32;;;;;;;12.48;9.05;;;;;;;18.51;83.40;98622.92;129726;1093;23077;-62
2021/07/04 02:42:04;;;;;;;13.05;9.98;;;;;;;18.53;83.50;98626.16;129643;1093;113939;-61
2021/07/04 02:44:36;;;;;;;11.13;9.23;;;;;;;18.53;83.51;98626.16;129798;1093;22541;-61
2021/07/04 02:47:06;;;;;;;11.25;9.70;;;;;;;18.55;83.67;98626.64;129621;1092;114388;-61
2021/07/04 02:49:36;;;;;;;12.98;10.58;;;;;;;18.57;83.48;98619.66;129750;1095;22997;-61
2021/07/04 02:52:08;;;;;;;9.88;8.88;;;;;;;18.61;83.46;98630.88;129733;1095;22602;-61
2021/07/04 02:54:38;;;;;;;16.00;9.48;;;;;;;18.64;83.46;98627.42;129595;1096;114092;-62
2021/07/04 02:57:13;;;;;;;11.43;9.68;;;;;;;18.68;83.69;98633.91;129666;1096;22670;-61
2021/07/04 02:59:42;;;;;;;9.25;8.30;;;;;;;18.69;83.46;98639.09;129623;1095;113941;-61
2021/07/04 03:02:12;;;;;;;10.93;9.00;;;;;;;18.73;83.29;98641.19;129676;1094;22556;-61
2021/07/04 03:04:44;;;;;;;12.35;10.25;;;;;;;18.73;83.05;98639.24;129736;1095;22580;-61
2021/07/04 03:07:13;;;;;;;13.63;9.35;;;;;;;18.75;83.16;98633.39;129605;1096;114756;-61
2021/07/04 03:09:43;;;;;;;10.35;9.35;;;;;;;18.77;83.15;98642.93;129748;1096;22554;-61
2021/07/04 03:12:14;;;;;;;11.35;10.25;;;;;;;18.78;83.36;98641.79;129556;1095;114060;-61
2021/07/04 03:15:01;;;;;;;11.83;10.27;;;;;;;18.80;82.97;98647.79;129716;1095;23060;-62
2021/07/04 03:17:31;;;;;;;10.95;9.85;;;;;;;18.81;83.19;98643.89;129307;1096;114343;-61
2021/07/04 03:20:00;;;;;;;12.78;10.55;;;;;;;18.85;83.10;98647.61;129673;1094;22563;-61
2021/07/04 03:22:29;;;;;;;14.50;10.93;;;;;;;18.88;83.19;98652.47;129731;1093;22552;-62
2021/07/04 03:25:00;;;;;;;13.73;11.50;;;;;;;18.94;83.60;98647.55;129685;1093;114159;-61
2021/07/04 03:27:30;;;;;;;14.25;12.78;;;;;;;18.98;83.25;98659.55;129770;1093;23257;-62
2021/07/04 03:29:59;;;;;;;15.45;11.40;;;;;;;19.00;83.27;98651.74;129668;1093;114743;-61
2021/07/04 03:32:28;;;;;;;12.08;10.83;;;;;;;19.04;83.38;98658.22;129766;1092;22546;-61
2021/07/04 03:34:58;;;;;;;13.00;11.30;;;;;;;19.07;83.35;98647.30;129641;1092;114524;-62
2021/07/04 03:37:28;;;;;;;12.03;10.83;;;;;;;19.12;83.08;98651.82;129808;1093;22564;-61
2021/07/04 03:39:58;;;;;;;13.45;11.35;;;;;;;19.18;83.05;98657.97;129760;1092;22557;-61
2021/07/04 03:42:28;;;;;;;11.23;9.85;;;;;;;19.23;83.34;98655.80;129669;1093;114394;-61
2021/07/04 03:44:57;;;;;;;11.95;10.85;;;;;;;19.29;83.04;98661.94;129728;1093;22560;-61
2021/07/04 03:47:26;;;;;;;14.60;11.30;;;;;;;19.34;83.03;98653.44;129710;1093;115061;-61
2021/07/04 03:49:58;;;;;;;12.15;10.95;;;;;;;19.39;82.97;98659.58;129758;1093;22565;-60
2021/07/04 03:52:31;;;;;;;12.30;10.50;;;;;;;19.45;82.79;98662.14;129777;1093;23188;-61
2021/07/04 03:55:00;;;;;;;12.85;11.30;;;;;;;19.50;82.91;98656.43;129658;1092;114712;-61
2021/07/04 03:57:32;;;;;;;13.53;11.80;;;;;;;19.55;82.49;98662.57;129809;1093;22688;-61
2021/07/04 04:00:11;;;;;;;13.40;11.00;;;;;;;19.62;82.48;98664.80;129653;1092;114116;-61
2021/07/04 04:02:52;;;;;;;10.48;9.45;;;;;;;19.67;82.64;98668.15;129791;1093;22564;-61
2021/07/04 04:05:28;;;;;;;11.30;9.97;;;;;;;19.75;82.44;98674.77;129700;1093;114434;-61
2021/07/04 04:07:57;;;;;;;12.23;11.03;;;;;;;19.81;82.22;98673.39;129743;1093;22651;-61
2021/07/04 04:10:46;;;;;;;17.70;10.28;;;;;;;19.88;82.15;98670.09;129756;1092;22604;-61
2021/07/04 04:13:19;;;;;;;11.58;10.45;;;;;;;19.96;81.99;98671.95;129700;1093;114091;-61
2021/07/04 04:15:52;;;;;;;13.30;11.00;;;;;;;20.04;81.92;98673.83;129775;1093;22649;-61
2021/07/04 04:18:22;;;;;;;10.80;9.65;;;;;;;20.11;81.58;98674.88;129705;1092;114572;-61
2021/07/04 04:20:51;;;;;;;16.20;11.03;;;;;;;20.16;81.45;98665.56;129761;1093;22613;-61
2021/07/04 04:23:20;;;;;;;14.40;11.35;;;;;;;20.22;81.22;98679.97;129708;1093;114593;-61
2021/07/04 04:25:50;;;;;;;11.03;9.93;;;;;;;20.27;80.99;98675.03;129722;1093;23112;-61
2021/07/04 04:28:19;;;;;;;13.45;10.05;;;;;;;20.33;81.02;98670.11;129789;1093;22617;-61
2021/07/04 04:30:49;;;;;;;10.98;9.88;;;;;;;20.38;80.74;98672.66;129666;1093;115320;-61
2021/07/04 04:33:19;;;;;;;10.70;9.65;;;;;;;20.45;80.94;98673.72;129822;1092;22644;-61
2021/07/04 04:35:48;;;;;;;10.73;9.15;;;;;;;20.50;80.98;98672.67;129653;1093;114882;-61
2021/07/04 04:38:17;;;;;;;11.05;9.55;;;;;;;20.57;80.74;98677.66;129823;1092;23140;-61
2021/07/04 04:41:02;;;;;;;10.43;9.25;;;;;;;20.60;80.45;98666.71;129652;1093;115107;-61
2021/07/04 04:43:30;;;;;;;10.73;9.45;;;;;;;20.64;80.41;98673.15;129800;1093;22512;-62
2021/07/04 04:46:00;;;;;;;10.37;9.33;;;;;;;20.70;80.35;98673.73;128243;1093;22834;-61
2021/07/04 04:48:29;;;;;;;11.70;9.78;;;;;;;20.76;80.01;98678.72;125067;1092;114631;-61
2021/07/04 04:50:58;;;;;;;11.88;9.63;;;;;;;20.78;79.84;98675.58;125106;1093;22949;-61
2021/07/04 04:53:27;;;;;;;10.43;9.50;;;;;;;20.78;79.50;98679.16;125050;1092;115160;-61
2021/07/04 04:55:56;;;;;;;13.38;9.75;;;;;;;20.80;79.59;98678.81;125131;1093;24576;-61
2021/07/04 04:58:25;;;;;;;12.23;10.45;;;;;;;20.80;79.59;98673.27;129700;1093;23176;-62
2021/07/04 05:00:53;;;;;;;10.33;9.33;;;;;;;20.78;79.80;98668.08;129706;1093;113365;-62
2021/07/04 05:03:22;;;;;;;11.90;9.75;;;;;;;20.83;79.65;98673.39;129788;1093;22555;-62
2021/07/04 05:05:51;;;;;;;11.05;9.48;;;;;;;20.92;80.13;98675.26;129709;1092;115535;-62
2021/07/04 05:08:20;;;;;;;11.65;10.43;;;;;;;21.00;80.04;98671.55;129799;1093;22580;-62
2021/07/04 05:10:49;;;;;;;13.38;11.98;;;;;;;21.09;80.01;98666.67;129789;1093;22565;-62
2021/07/04 05:13:18;;;;;;;11.60;10.43;;;;;;;21.15;80.17;98660.56;129675;1092;114249;-62
2021/07/04 05:15:47;;;;;;;15.90;11.95;;;;;;;21.26;80.70;98660.11;129782;1093;22545;-61
2021/07/04 05:18:16;;;;;;;13.60;12.03;;;;;;;21.38;80.08;98671.16;129714;1092;114265;-61
2021/07/04 05:20:45;;;;;;;13.50;12.10;;;;;;;21.48;79.40;98667.92;129824;1092;22578;-61
2021/07/04 05:23:14;;;;;;;13.98;11.28;;;;;;;21.56;78.95;98671.70;129643;1093;114739;-62
2021/07/04 05:25:45;;;;;;;12.43;11.15;;;;;;;21.62;78.64;98676.66;129809;1092;22533;-62
2021/07/04 05:28:14;;;;;;;13.83;12.43;;;;;;;21.68;78.28;98668.88;129756;1092;23086;-61
2021/07/04 05:30:43;;;;;;;14.23;12.10;;;;;;;21.71;77.88;98668.98;129696;1093;114568;-62
2021/07/04 05:33:12;;;;;;;14.78;13.23;;;;;;;21.72;77.99;98678.11;129765;1093;22564;-62
2021/07/04 05:35:41;;;;;;;12.70;11.33;;;;;;;21.75;77.77;98664.36;129731;1092;115440;-62
2021/07/04 05:38:17;;;;;;;13.00;11.70;;;;;;;21.82;77.74;98670.09;129680;1093;23142;-61
2021/07/04 05:40:48;;;;;;;13.90;11.30;;;;;;;21.88;77.33;98668.69;129810;1093;22593;-62
2021/07/04 05:43:17;;;;;;;12.68;11.40;;;;;;;21.95;77.41;98672.81;129648;1092;114119;-61
2021/07/04 05:45:46;;;;;;;13.03;11.75;;;;;;;22.02;77.33;98668.31;129805;1093;22539;-62
2021/07/04 05:48:14;;;;;;;13.18;11.23;;;;;;;22.10;76.94;98672.88;129632;1092;114567;-63
2021/07/04 05:50:49;;;;;;;13.68;12.20;;;;;;;22.16;76.19;98673.44;129782;1091;22551;-62
2021/07/04 05:53:18;;;;;;;14.73;11.93;;;;;;;22.19;76.10;98662.45;129625;1093;114577;-62
2021/07/04 05:55:47;;;;;;;14.10;10.78;;;;;;;22.17;75.07;98670.31;129802;1093;22650;-62
2021/07/04 05:58:16;;;;;;;15.40;12.50;;;;;;;22.14;75.55;98671.02;129783;1092;22579;-62
2021/07/04 06:00:45;;;;;;;13.38;11.15;;;;;;;22.12;75.32;98666.98;129700;1092;114339;-61
2021/07/04 06:03:14;;;;;;;13.15;10.95;;;;;;;22.08;75.61;98664.10;129821;1093;22571;-62
2021/07/04 06:05:42;;;;;;;17.58;11.95;;;;;;;22.08;75.66;98655.78;129691;1093;114174;-62
2021/07/04 06:08:13;;;;;;;16.53;12.10;;;;;;;22.04;75.25;98654.09;129837;1092;23467;-61
2021/07/04 06:10:45;;;;;;;16.13;13.95;;;;;;;21.98;75.62;98652.69;129735;1093;22600;-62
2021/07/04 06:13:17;;;;;;;14.40;12.90;;;;;;;21.96;75.53;98657.78;129700;1092;114213;-61
2021/07/04 06:15:46;;;;;;;15.18;13.68;;;;;;;21.93;76.05;98653.74;129793;1092;22615;-61
2021/07/04 06:18:14;;;;;;;15.00;13.50;;;;;;;21.95;76.20;98658.94;129707;1093;115098;-62
2021/07/04 06:20:45;;;;;;;15.83;13.80;;;;;;;21.97;75.77;98656.63;129777;1092;22584;-61
2021/07/04 06:23:14;;;;;;;14.93;12.80;;;;;;;21.99;75.86;98657.92;129712;1093;114978;-61
2021/07/04 06:25:43;;;;;;;16.45;12.70;;;;;;;22.05;75.61;98658.48;129779;1092;23149;-61
2021/07/04 06:28:12;;;;;;;16.35;14.75;;;;;;;22.11;75.28;98657.84;129783;1093;22564;-61
2021/07/04 06:30:40;;;;;;;15.88;14.18;;;;;;;22.16;75.29;98648.47;129695;1093;115073;-61
2021/07/04 06:33:09;;;;;;;14.35;12.80;;;;;;;22.22;75.07;98649.80;129820;1092;22532;-62
2021/07/04 06:35:39;;;;;;;17.18;15.05;;;;;;;22.28;74.95;98645.61;129651;1092;114033;-61
2021/07/04 06:38:08;;;;;;;17.35;14.00;;;;;;;22.35;75.02;98643.04;129824;1092;22524;-61
2021/07/04 06:40:37;;;;;;;19.20;15.15;;;;;;;22.42;74.72;98643.20;129795;1093;22574;-61
2021/07/04 06:43:06;;;;;;;16.30;13.08;;;;;;;22.48;74.75;98635.43;129644;1093;114437;-61
2021/07/04 06:45:40;;;;;;;14.60;13.13;;;;;;;22.55;73.93;98641.14;129772;1093;22619;-61
2021/07/04 06:48:09;;;;;;;16.78;14.98;;;;;;;22.60;73.76;98643.66;129729;1092;115168;-61
2021/07/04 06:50:38;;;;;;;16.13;14.53;;;;;;;22.64;73.91;98641.78;129781;1093;22685;-61
2021/07/04 06:53:08;;;;;;;18.03;15.05;;;;;;;22.72;73.89;98639.97;129693;1092;114529;-60
2021/07/04 06:55:37;;;;;;;17.53;15.83;;;;;;;22.78;73.63;98644.13;128937;1093;25999;-61
2021/07/04 06:58:06;;;;;;;16.08;14.45;;;;;;;22.84;73.75;98643.48;129666;1093;22589;-60
2021/07/04 07:00:35;;;;;;;14.30;12.90;;;;;;;22.92;73.42;98641.69;129689;1093;114874;-60
2021/07/04 07:03:04;;;;;;;15.83;13.95;;;;;;;23.00;72.45;98648.20;129784;1093;22585;-60
2021/07/04 07:05:33;;;;;;;17.20;15.33;;;;;;;23.07;72.60;98651.97;129713;1092;115013;-61
2021/07/04 07:08:02;;;;;;;19.88;15.23;;;;;;;23.16;72.42;98646.20;129759;1093;23387;-61
2021/07/04 07:10:32;;;;;;;13.43;12.13;;;;;;;23.24;72.32;98645.98;129791;1092;23355;-63
2021/07/04 07:13:01;;;;;;;11.47;10.37;;;;;;;23.34;72.07;98647.41;129607;1093;114391;-63
2021/07/04 07:15:33;;;;;;;12.58;11.20;;;;;;;23.43;71.06;98642.44;129779;1092;22549;-63
2021/07/04 07:18:02;;;;;;;18.18;10.15;;;;;;;23.49;70.74;98640.19;129643;1092;114492;-63
2021/07/04 07:20:31;;;;;;;14.05;10.70;;;;;;;23.51;70.14;98640.66;129739;1092;22531;-64
2021/07/04 07:24:33;;;;;;;11.73;10.13;;;;;;;23.55;69.46;98639.55;125399;1093;25984;-62
2021/07/04 07:27:02;;;;;;;12.85;11.53;;;;;;;23.57;69.73;98650.30;129740;1092;24361;-61
2021/07/04 07:29:33;;;;;;;13.50;12.10;;;;;;;23.59;70.98;98647.97;129693;1093;114269;-63
2021/07/04 07:32:03;;;;;;;12.45;11.28;;;;;;;23.67;70.65;98635.00;129687;1093;23338;-63
2021/07/04 07:34:32;;;;;;;13.65;10.65;;;;;;;23.75;71.42;98645.92;129794;1093;22630;-60
2021/07/04 07:37:02;;;;;;;14.35;10.93;;;;;;;23.86;70.38;98638.59;129717;1093;114140;-63
2021/07/04 07:39:33;;;;;;;14.28;10.53;;;;;;;23.94;69.95;98637.57;129775;1093;22603;-64
2021/07/04 07:42:02;;;;;;;12.10;9.80;;;;;;;24.02;69.25;98641.28;129687;1093;116425;-61
2021/07/04 07:44:31;;;;;;;10.15;9.15;;;;;;;24.09;68.90;98635.06;129721;1092;22546;-61
2021/07/04 07:47:04;;;;;;;12.40;9.85;;;;;;;24.16;68.07;98635.98;129687;1092;114518;-60
2021/07/04 07:49:33;;;;;;;10.25;9.10;;;;;;;24.23;68.42;98636.16;129764;1093;22656;-60
2021/07/04 07:52:03;;;;;;;11.28;8.85;;;;;;;24.33;66.98;98642.27;129823;1092;22581;-58
2021/07/04 07:54:37;;;;;;;11.15;9.98;;;;;;;24.37;66.75;98641.17;129656;1092;116043;-58
2021/07/04 07:57:07;;;;;;;9.93;9.03;;;;;;;24.40;65.46;98639.60;129805;1093;22540;-58
2021/07/04 07:59:39;;;;;;;11.18;9.00;;;;;;;24.41;65.71;98644.80;129723;1093;114249;-58
2021/07/04 08:02:08;;;;;;;10.88;9.05;;;;;;;24.43;64.74;98650.00;129738;1093;23105;-58
2021/07/04 08:04:37;;;;;;;10.25;9.23;;;;;;;24.45;65.07;98642.89;129795;1093;22744;-59
2021/07/04 08:07:13;;;;;;;9.90;8.90;;;;;;;24.47;66.10;98654.47;125858;1092;113883;-59
2021/07/04 08:09:43;;;;;;;11.65;8.35;;;;;;;24.52;65.91;98650.58;129888;1093;24794;-59
2021/07/04 08:12:12;;;;;;;10.50;7.83;;;;;;;24.59;65.49;98645.11;129697;1093;114056;-59
2021/07/04 08:14:50;;;;;;;9.65;7.60;;;;;;;24.68;64.50;98649.25;129800;1093;23112;-59
2021/07/04 08:17:20;;;;;;;8.08;6.23;;;;;;;24.75;63.83;98648.57;129739;1093;113339;-59
2021/07/04 08:20:09;;;;;;;11.08;7.15;;;;;;;24.83;63.90;98649.47;129859;1092;22570;-59
2021/07/04 08:22:38;;;;;;;6.83;6.23;;;;;;;24.88;63.70;98649.97;129829;1093;22629;-59
2021/07/04 08:25:08;;;;;;;9.83;5.85;;;;;;;24.92;62.60;98645.27;129752;1093;113907;-59
2021/07/04 08:27:36;;;;;;;8.63;7.70;;;;;;;24.94;62.82;98645.73;129912;1092;22670;-59
2021/07/04 08:30:08;;;;;;;8.48;7.68;;;;;;;24.98;62.22;98651.34;129722;1093;113615;-59
2021/07/04 08:32:37;;;;;;;8.03;7.05;;;;;;;25.01;63.53;98653.38;129873;1093;23168;-59
2021/07/04 08:35:06;;;;;;;8.30;7.33;;;;;;;25.04;61.93;98654.63;129635;1093;113969;-58
2021/07/04 08:37:39;;;;;;;26.70;8.95;;;;;;;25.08;62.00;98652.70;129867;1092;22979;-59
2021/07/04 08:40:09;;;;;;;7.48;6.45;;;;;;;25.12;61.89;98650.75;129812;1093;22575;-59
2021/07/04 08:42:38;;;;;;;8.37;5.70;;;;;;;25.17;61.17;98648.45;129785;1093;114081;-59
2021/07/04 08:45:08;;;;;;;8.58;7.73;;;;;;;25.23;62.32;98649.75;129820;1093;22621;-59
2021/07/04 08:47:38;;;;;;;11.25;7.55;;;;;;;25.33;61.74;98648.28;129750;1092;114014;-59
2021/07/04 08:50:08;;;;;;;8.93;6.75;;;;;;;25.40;61.53;98651.16;129824;1092;23858;-59
2021/07/04 08:52:38;;;;;;;5.38;4.98;;;;;;;25.46;59.55;98651.64;129883;1093;22590;-59
2021/07/04 08:55:08;;;;;;;9.93;7.05;;;;;;;25.48;59.09;98646.49;129757;1092;113857;-59
2021/07/04 08:57:37;;;;;;;6.73;6.23;;;;;;;25.50;59.90;98647.72;129840;1092;22666;-59
2021/07/04 09:00:07;;;;;;;7.98;6.85;;;;;;;25.53;59.79;98649.77;129746;1093;114018;-59
2021/07/04 09:02:40;;;;;;;6.93;5.93;;;;;;;25.56;58.61;98648.98;129772;1093;22588;-59
2021/07/04 09:05:11;;;;;;;8.38;7.48;;;;;;;25.57;59.21;98653.38;129789;1093;113983;-59
2021/07/04 09:07:42;;;;;;;6.93;6.23;;;;;;;25.57;60.22;98642.22;129807;1093;22555;-59
2021/07/04 09:10:17;;;;;;;7.88;7.03;;;;;;;25.64;60.87;98644.34;129844;1093;22533;-59
2021/07/04 09:12:50;;;;;;;7.73;7.03;;;;;;;25.71;60.03;98641.63;129676;1093;114035;-59
2021/07/04 09:15:25;;;;;;;8.33;7.40;;;;;;;25.79;60.15;98648.11;129845;1092;22597;-59
2021/07/04 09:17:59;;;;;;;6.90;6.15;;;;;;;25.85;59.09;98646.57;129622;1093;114130;-59
2021/07/04 09:20:31;;;;;;;8.23;5.90;;;;;;;25.89;59.15;98651.02;129843;1092;24443;-59
2021/07/04 09:23:01;;;;;;;6.53;6.00;;;;;;;25.91;57.92;98645.87;129716;1092;113991;-59
2021/07/04 09:25:45;;;;;;;7.20;6.50;;;;;;;25.91;57.62;98639.48;129855;1092;22539;-59
2021/07/04 09:28:16;;;;;;;9.13;6.30;;;;;;;25.86;57.09;98642.60;129750;1093;23404;-59
2021/07/04 09:30:52;;;;;;;8.18;5.60;;;;;;;25.78;56.83;98635.34;129770;1093;114262;-59
2021/07/04 09:33:21;;;;;;;;;;;;;;;25.69;56.95;98643.98;129840;1093;23736;-59
2021/07/04 09:35:57;;;;;;;6.25;5.58;;;;;;;25.61;56.67;98639.48;129798;1093;100383;-59
2021/07/04 09:38:43;;;;;;;5.73;5.23;;;;;;;25.56;57.11;98639.80;129808;1092;22644;-59
2021/07/04 09:41:13;;;;;;;10.23;6.95;;;;;;;25.55;58.18;98636.22;125778;1093;113972;-58
2021/07/04 09:43:43;;;;;;;6.25;5.25;;;;;;;25.57;58.39;98630.26;129825;1093;23385;-59
2021/07/04 09:46:13;;;;;;;7.40;6.43;;;;;;;25.57;58.15;98630.26;129825;1092;22631;-59
2021/07/04 09:48:47;;;;;;;5.85;5.33;;;;;;;25.58;57.64;98634.66;129695;1093;114171;-59
2021/07/04 09:51:21;;;;;;;6.60;5.60;;;;;;;25.58;57.85;98635.46;129814;1093;22557;-60
2021/07/04 09:53:53;;;;;;;6.23;5.63;;;;;;;25.60;58.61;98627.52;129720;1093;114692;-59
2021/07/04 09:56:32;;;;;;;6.20;5.60;;;;;;;25.65;57.85;98621.65;129854;1092;22533;-59
2021/07/04 09:59:03;;;;;;;7.13;5.15;;;;;;;25.72;58.30;98626.49;129691;1093;114770;-59
2021/07/04 10:01:46;;;;;;;6.43;5.83;;;;;;;25.80;57.92;98619.83;129855;1093;23167;-59
2021/07/04 10:04:28;;;;;;;7.75;6.23;;;;;;;25.86;57.04;98620.27;129811;1093;22595;-59
2021/07/04 10:06:58;;;;;;;6.60;6.00;;;;;;;25.87;57.96;98614.31;129702;1093;113640;-60
2021/07/04 10:09:29;;;;;;;6.58;5.98;;;;;;;25.88;57.29;98624.30;129812;1093;22657;-59
2021/07/04 10:12:01;;;;;;;8.05;5.75;;;;;;;25.87;57.29;98624.67;129743;1092;114104;-60
2021/07/04 10:14:30;;;;;;;6.93;6.23;;;;;;;25.88;57.31;98626.28;129782;1093;22558;-59
2021/07/04 10:17:00;;;;;;;6.80;6.10;;;;;;;25.88;58.05;98626.28;129708;1093;114003;-59
2021/07/04 10:19:32;;;;;;;6.55;5.95;;;;;;;25.88;56.58;98626.28;129795;1092;22596;-59
2021/07/04 10:22:02;;;;;;;7.10;5.87;;;;;;;25.87;57.12;98622.69;129816;1092;22554;-59
2021/07/04 10:24:31;;;;;;;7.30;5.98;;;;;;;25.88;55.94;98624.30;129705;1093;113898;-59
2021/07/04 10:27:04;;;;;;;6.78;5.48;;;;;;;25.86;56.02;98611.90;129849;1092;22521;-59
2021/07/04 10:29:33;;;;;;;7.23;5.50;;;;;;;25.85;56.02;98608.30;129659;1093;114754;-59
2021/07/04 10:32:12;;;;;;;6.70;6.00;;;;;;;25.88;56.58;98607.55;129860;1092;22599;-59
2021/07/04 10:34:43;;;;;;;7.10;5.30;;;;;;;25.95;56.35;98612.42;129777;1093;22648;-59
2021/07/04 10:37:14;;;;;;;7.85;6.13;;;;;;;26.02;56.12;98606.89;129716;1093;113470;-59
2021/07/04 10:39:43;;;;;;;6.53;5.83;;;;;;;26.08;56.17;98602.59;129762;1093;22584;-59
2021/07/04 10:42:12;;;;;;;6.83;6.13;;;;;;;26.16;57.26;98601.45;129706;1092;113849;-59
2021/07/04 10:44:46;;;;;;;7.13;6.45;;;;;;;26.24;56.45;98603.15;129757;1093;22605;-60
2021/07/04 10:47:23;;;;;;;8.08;6.55;;;;;;;26.30;55.67;98593.24;125804;1093;114221;-59
2021/07/04 10:50:12;;;;;;;7.08;5.58;;;;;;;26.35;55.28;98592.90;129787;1093;22581;-60
2021/07/04 10:52:48;;;;;;;10.80;6.58;;;;;;;26.40;55.35;98591.75;129857;1093;22550;-57
2021/07/04 10:55:31;;;;;;;8.15;6.45;;;;;;;26.46;55.27;98586.59;129714;1093;113766;-58
2021/07/04 10:58:01;;;;;;;15.40;6.18;;;;;;;26.53;55.83;98586.66;129832;1093;22549;-59
2021/07/04 11:00:36;;;;;;;6.88;6.25;;;;;;;26.57;55.84;98582.69;129684;1092;114109;-58
2021/07/04 11:03:06;;;;;;;8.40;5.95;;;;;;;26.64;55.01;98588.35;129812;1093;22553;-58
2021/07/04 11:05:36;;;;;;;7.55;6.35;;;;;;;26.68;54.75;98594.78;129692;1092;115001;-58
2021/07/04 11:08:27;;;;;;;7.08;6.38;;;;;;;26.71;54.94;98581.99;129822;1093;22581;-58
2021/07/04 11:11:00;;;;;;;8.10;6.10;;;;;;;26.70;53.93;98569.21;129703;1092;114799;-59
2021/07/04 11:13:34;;;;;;;7.63;6.83;;;;;;;26.70;53.75;98580.39;129865;1093;23702;-58
2021/07/04 11:16:08;;;;;;;7.28;6.63;;;;;;;26.70;54.12;98574.80;129812;1093;22541;-58
2021/07/04 11:18:56;;;;;;;6.90;6.28;;;;;;;26.73;54.15;98579.62;129738;1093;114063;-58
2021/07/04 11:21:45;;;;;;;7.13;6.00;;;;;;;26.75;53.90;98568.86;129780;1092;23346;-58
2021/07/04 11:24:21;;;;;;;8.60;7.18;;;;;;;26.74;53.95;98565.26;129715;1092;113731;-58
2021/07/04 11:27:20;;;;;;;7.75;6.35;;;;;;;26.73;54.05;98569.24;129802;1092;22658;-58
2021/07/04 11:30:26;;;;;;;7.90;6.63;;;;;;;26.74;54.24;98570.05;129711;1093;113829;-58
2021/07/04 11:33:28;;;;;;;7.10;6.50;;;;;;;26.73;54.05;98566.45;129820;1093;25366;-58
2021/07/04 11:36:10;;;;;;;7.13;6.50;;;;;;;26.75;53.90;98566.87;129763;1093;114036;-58
2021/07/04 11:38:41;;;;;;;10.05;7.03;;;;;;;26.75;53.60;98569.66;129785;1092;22563;-58